Time,TemperatureF,DewpointF,PressureIn,WindDirection,WindDirectionDegrees,WindSpeedMPH,WindSpeedGustMPH,Humidity,HourlyPrecipIn,Conditions,Clouds,dailyrainin,SolarRadiationWatts/m^2,SoftwareType,DateUTC
2013-05-12 00:01:00,53.6,51.3,30.05,East,82,3.5,3.5,92,0.00,CLR,SKC,0.00,0.0,WeatherDisplay:10.37,2013-05-12 07:01:00,
2013-05-12 00:06:00,53.6,51.3,30.05,East,82,3.5,3.5,92,0.00,CLR,SKC,0.00,0.0,WeatherDisplay:10.37,2013-05-12 07:06:00,
2013-05-12 00:11:00,53.5,51.2,30.05,East,82,2.0,2.0,92,0.00,,SKC,0.00,0.0,WeatherDisplay:10.37,2013-05-12 07:11:00,
2013-05-12 00:16:00,53.5,51.2,30.05,East,82,2.3,0.0,92,0.00,,SKC,0.00,0.0,WeatherDisplay:10.37,2013-05-12 07:16:00,
2013-05-12 00:21:00,53.5,51.2,30.05,East,86,0.0,0.0,92,0.00,,SKC,0.00,0.0,WeatherDisplay:10.37,2013-05-12 07:21:00,
2013-05-12 00:26:00,53.5,51.2,30.05,East,86,0.0,0.0,92,0.00,,SKC,0.00,0.0,WeatherDisplay:10.37,2013-05-12 07:26:00,
2013-05-12 00:31:00,53.5,51.2,30.05,East,86,2.3,2.3,92,0.00,,SKC,0.00,0.0,WeatherDisplay:10.37,2013-05-12 07:31:00,
2013-05-12 00:36:00,53.5,51.2,30.05,East,86,3.5,3.5,92,0.00,,SKC,0.00,0.0,WeatherDisplay:10.37,2013-05-12 07:36:00,
2013-05-12 00:41:00,53.5,51.2,30.05,East,86,2.3,2.3,92,0.00,,SKC,0.00,0.0,WeatherDisplay:10.37,2013-05-12 07:41:00,
2013-05-12 00:46:00,53.6,51.3,30.05,East,86,0.0,0.0,92,0.00,,SKC,0.00,0.0,WeatherDisplay:10.37,2013-05-12 07:46:00,
2013-05-12 00:51:00,53.6,51.3,30.05,East,86,0.0,0.0,92,0.00,,SKC,0.00,0.0,WeatherDisplay:10.37,2013-05-12 07:51:00,
2013-05-12 00:56:00,53.6,51.3,30.05,East,86,1.2,0.0,92,0.00,,SKC,0.00,0.0,WeatherDisplay:10.37,2013-05-12 07:56:00,
2013-05-12 01:01:00,53.6,51.3,30.05,East,86,0.0,0.0,92,0.00,,SKC,0.00,0.0,WeatherDisplay:10.37,2013-05-12 08:01:00,
2013-05-12 01:06:00,53.6,51.3,30.05,East,88,3.5,3.5,92,0.00,,SKC,0.00,0.0,WeatherDisplay:10.37,2013-05-12 08:06:00,
2013-05-12 01:11:00,53.7,51.4,30.05,SE,133,4.6,4.6,92,0.00,,SKC,0.00,0.0,WeatherDisplay:10.37,2013-05-12 08:11:00,
2013-05-12 01:16:00,53.7,51.7,30.05,SE,132,4.6,4.6,93,0.00,,SKC,0.00,0.0,WeatherDisplay:10.37,2013-05-12 08:16:00,
2013-05-12 01:21:00,53.7,51.4,30.05,SE,132,3.5,3.5,92,0.00,,SKC,0.00,0.0,WeatherDisplay:10.37,2013-05-12 08:21:00,
2013-05-12 01:26:00,53.6,51.3,30.05,SE,132,0.0,0.0,92,0.00,,SKC,0.00,0.0,WeatherDisplay:10.37,2013-05-12 08:26:00,
2013-05-12 01:31:00,53.5,51.2,30.05,SE,132,0.0,0.0,92,0.00,,SKC,0.00,0.0,WeatherDisplay:10.37,2013-05-12 08:31:00,
2013-05-12 01:36:00,53.6,51.3,30.05,SE,132,0.0,0.0,92,0.00,,SKC,0.00,0.0,WeatherDisplay:10.37,2013-05-12 08:36:00,
2013-05-12 01:41:00,53.6,51.3,30.05,SE,132,1.2,1.2,92,0.00,,SKC,0.00,0.0,WeatherDisplay:10.37,2013-05-12 08:41:00,
2013-05-12 01:46:00,53.6,51.3,30.05,SE,132,1.2,1.2,92,0.00,,SKC,0.00,0.0,WeatherDisplay:10.37,2013-05-12 08:46:00,
2013-05-12 01:51:00,53.6,51.3,30.05,SE,132,3.5,3.5,92,0.00,,SKC,0.00,0.0,WeatherDisplay:10.37,2013-05-12 08:51:00,
2013-05-12 01:56:00,53.5,51.2,30.04,SE,132,0.0,0.0,92,0.00,,SKC,0.00,0.0,WeatherDisplay:10.37,2013-05-12 08:56:00,
2013-05-12 02:01:00,53.5,51.2,30.04,SE,132,0.0,0.0,92,0.00,,SKC,0.00,0.0,WeatherDisplay:10.37,2013-05-12 09:01:00,
2013-05-12 02:06:00,53.4,51.1,30.04,SE,132,2.3,2.3,92,0.00,,SKC,0.00,0.0,WeatherDisplay:10.37,2013-05-12 09:06:00,
2013-05-12 02:11:00,52.9,50.6,30.04,SE,131,1.2,1.2,92,0.00,,SKC,0.00,0.0,WeatherDisplay:10.37,2013-05-12 09:11:00,
2013-05-12 02:16:00,52.6,50.3,30.04,ENE,72,2.3,2.3,92,0.00,,SKC,0.00,0.0,WeatherDisplay:10.37,2013-05-12 09:16:00,
2013-05-12 02:21:00,52.4,50.1,30.04,ENE,72,1.2,1.2,92,0.00,,SKC,0.00,0.0,WeatherDisplay:10.37,2013-05-12 09:21:00,
2013-05-12 02:26:00,52.2,49.9,30.04,ENE,72,2.3,2.3,92,0.00,,SKC,0.00,0.0,WeatherDisplay:10.37,2013-05-12 09:26:00,
2013-05-12 02:31:00,52.0,49.7,30.04,ENE,72,2.3,2.3,92,0.00,,SKC,0.00,0.0,WeatherDisplay:10.37,2013-05-12 09:31:00,
2013-05-12 02:36:00,51.9,49.6,30.04,ENE,72,2.3,2.3,92,0.00,,SKC,0.00,0.0,WeatherDisplay:10.37,2013-05-12 09:36:00,
2013-05-12 02:41:00,51.9,49.6,30.03,ENE,72,0.0,0.0,92,0.00,,SKC,0.00,0.0,WeatherDisplay:10.37,2013-05-12 09:41:00,
2013-05-12 02:46:00,51.8,49.5,30.03,ENE,72,1.2,0.0,92,0.00,,SKC,0.00,0.0,WeatherDisplay:10.37,2013-05-12 09:46:00,
2013-05-12 02:51:00,51.7,49.5,30.03,ENE,72,1.0,0.0,92,0.00,,SKC,0.00,0.0,WeatherDisplay:10.37,2013-05-12 09:51:00,
2013-05-12 02:56:00,51.6,49.4,30.02,ENE,69,1.2,1.5,92,0.00,,SKC,0.00,0.0,WeatherDisplay:10.37,2013-05-12 09:56:00,
2013-05-12 03:01:00,51.4,49.2,30.02,ENE,69,3.5,3.5,92,0.00,,SKC,0.00,0.0,WeatherDisplay:10.37,2013-05-12 10:01:00,
2013-05-12 03:06:00,51.3,49.1,30.02,ENE,69,1.2,1.2,92,0.00,,SKC,0.00,0.0,WeatherDisplay:10.37,2013-05-12 10:06:00,
2013-05-12 03:11:00,51.2,49.0,30.02,ENE,69,2.3,2.3,92,0.00,,SKC,0.00,0.0,WeatherDisplay:10.37,2013-05-12 10:11:00,
2013-05-12 03:16:00,51.2,49.0,30.02,ENE,69,2.0,2.0,92,0.00,,SKC,0.00,0.0,WeatherDisplay:10.37,2013-05-12 10:16:00,
2013-05-12 03:21:00,51.1,48.9,30.02,ENE,69,1.2,1.2,92,0.00,,SKC,0.00,0.0,WeatherDisplay:10.37,2013-05-12 10:21:00,
2013-05-12 03:26:00,51.2,49.0,30.02,ENE,69,2.0,2.0,92,0.00,,SKC,0.00,0.0,WeatherDisplay:10.37,2013-05-12 10:26:00,
2013-05-12 03:31:00,51.1,48.9,30.02,ENE,69,1.2,0.0,92,0.00,,SKC,0.00,0.0,WeatherDisplay:10.37,2013-05-12 10:31:00,
2013-05-12 03:36:00,51.0,48.8,30.02,ENE,69,0.0,0.0,92,0.00,,SKC,0.00,0.0,WeatherDisplay:10.37,2013-05-12 10:36:00,
2013-05-12 03:41:00,51.0,48.8,30.02,ENE,69,2.3,2.3,92,0.00,,SKC,0.00,0.0,WeatherDisplay:10.37,2013-05-12 10:41:00,
2013-05-12 03:46:00,50.9,48.7,30.02,ENE,69,1.2,0.0,92,0.00,,SKC,0.00,0.0,WeatherDisplay:10.37,2013-05-12 10:46:00,
2013-05-12 03:51:00,50.9,48.7,30.02,ENE,69,0.0,0.0,92,0.00,,SKC,0.00,0.0,WeatherDisplay:10.37,2013-05-12 10:51:00,
2013-05-12 03:56:00,50.9,48.7,30.02,ENE,69,0.0,0.0,92,0.00,,SKC,0.00,0.0,WeatherDisplay:10.37,2013-05-12 10:56:00,
2013-05-12 04:01:00,50.9,48.7,30.02,ENE,69,0.0,0.0,92,0.00,,SKC,0.00,0.0,WeatherDisplay:10.37,2013-05-12 11:01:00,
2013-05-12 04:06:00,51.0,48.8,30.02,ENE,69,0.0,0.0,92,0.00,,SKC,0.00,0.0,WeatherDisplay:10.37,2013-05-12 11:06:00,
2013-05-12 04:11:00,51.0,48.8,30.02,ENE,69,0.0,0.0,92,0.00,,SKC,0.00,0.0,WeatherDisplay:10.37,2013-05-12 11:11:00,
2013-05-12 04:16:00,51.1,48.9,30.02,ENE,69,0.0,0.0,92,0.00,,SKC,0.00,0.0,WeatherDisplay:10.37,2013-05-12 11:16:00,
2013-05-12 04:21:00,51.2,49.0,30.02,ENE,69,0.0,0.0,92,0.00,,SKC,0.00,0.0,WeatherDisplay:10.37,2013-05-12 11:21:00,
2013-05-12 04:26:00,51.0,48.8,30.02,ENE,69,0.0,0.0,92,0.00,,SKC,0.00,0.0,WeatherDisplay:10.37,2013-05-12 11:26:00,
2013-05-12 04:31:00,50.8,48.6,30.02,ENE,69,1.2,0.0,92,0.00,,SKC,0.00,0.0,WeatherDisplay:10.37,2013-05-12 11:31:00,
2013-05-12 04:36:00,50.9,48.7,30.02,ENE,69,1.2,0.0,92,0.00,,SKC,0.00,0.0,WeatherDisplay:10.37,2013-05-12 11:36:00,
2013-05-12 04:42:00,51.3,49.1,30.02,ENE,69,2.3,2.3,92,0.00,,SKC,0.00,0.0,WeatherDisplay:10.37,2013-05-12 11:42:00,
2013-05-12 04:47:00,51.6,49.4,30.02,ENE,69,0.0,0.4,92,0.00,,SKC,0.00,0.0,WeatherDisplay:10.37,2013-05-12 11:47:00,
2013-05-12 04:52:00,52.1,49.8,30.02,SW,225,4.0,4.0,92,0.00,,SKC,0.00,0.0,WeatherDisplay:10.37,2013-05-12 11:52:00,
2013-05-12 04:57:00,52.3,50.0,30.02,WSW,252,3.5,3.5,92,0.00,,SKC,0.00,0.0,WeatherDisplay:10.37,2013-05-12 11:57:00,
2013-05-12 05:02:00,52.3,50.0,30.02,WSW,252,2.3,2.3,92,0.00,,SKC,0.00,0.0,WeatherDisplay:10.37,2013-05-12 12:02:00,
2013-05-12 05:07:00,52.2,49.9,30.02,WSW,251,2.3,2.3,92,0.00,,SKC,0.00,0.0,WeatherDisplay:10.37,2013-05-12 12:07:00,
2013-05-12 05:12:00,52.1,49.8,30.02,WSW,252,2.3,2.3,92,0.00,,SKC,0.00,0.0,WeatherDisplay:10.37,2013-05-12 12:12:00,
2013-05-12 05:17:00,51.9,49.9,30.02,WSW,252,3.5,0.0,93,0.00,,SKC,0.00,0.0,WeatherDisplay:10.37,2013-05-12 12:17:00,
2013-05-12 05:22:00,51.9,49.9,30.02,WSW,252,0.0,0.0,93,0.00,,SKC,0.00,0.0,WeatherDisplay:10.37,2013-05-12 12:22:00,
2013-05-12 05:27:00,51.8,49.8,30.02,WSW,252,0.0,0.0,93,0.00,,SKC,0.00,0.0,WeatherDisplay:10.37,2013-05-12 12:27:00,
2013-05-12 05:32:00,51.6,49.4,30.02,WSW,251,0.0,0.0,92,0.00,,SKC,0.00,0.0,WeatherDisplay:10.37,2013-05-12 12:32:00,
2013-05-12 05:37:00,51.5,49.3,30.02,WSW,252,0.0,0.0,92,0.00,,SKC,0.00,0.0,WeatherDisplay:10.37,2013-05-12 12:37:00,
2013-05-12 05:42:00,51.4,49.2,30.02,WSW,252,0.0,0.0,92,0.00,,SKC,0.00,0.0,WeatherDisplay:10.37,2013-05-12 12:42:00,
2013-05-12 05:47:00,51.4,49.4,30.02,WSW,252,0.0,0.0,93,0.00,,SKC,0.00,0.0,WeatherDisplay:10.37,2013-05-12 12:47:00,
2013-05-12 05:52:00,51.4,49.4,30.02,WSW,252,0.0,0.0,93,0.00,,SKC,0.00,0.0,WeatherDisplay:10.37,2013-05-12 12:52:00,
2013-05-12 05:57:00,51.2,49.2,30.03,WSW,252,0.0,0.0,93,0.00,,SKC,0.00,0.0,WeatherDisplay:10.37,2013-05-12 12:57:00,
2013-05-12 06:02:00,51.2,49.2,30.03,WSW,252,0.0,0.0,93,0.00,OVC,SKC,0.00,0.0,WeatherDisplay:10.37,2013-05-12 13:02:00,
2013-05-12 06:07:00,51.0,48.8,30.03,WSW,252,0.0,0.0,92,0.00,OVC,SKC,0.00,5.0,WeatherDisplay:10.37,2013-05-12 13:07:00,
2013-05-12 06:12:00,51.0,49.0,30.04,WSW,251,0.0,0.0,93,0.00,OVC,SKC,0.00,9.0,WeatherDisplay:10.37,2013-05-12 13:12:00,
2013-05-12 06:17:00,51.1,49.1,30.04,WSW,252,0.0,0.0,93,0.00,OVC,SKC,0.00,12.0,WeatherDisplay:10.37,2013-05-12 13:17:00,
2013-05-12 06:22:00,51.2,49.2,30.04,WSW,252,2.3,2.3,93,0.00,OVC,SKC,0.00,12.0,WeatherDisplay:10.37,2013-05-12 13:22:00,
2013-05-12 06:27:00,51.2,49.2,30.04,WSW,252,0.0,0.0,93,0.00,OVC,SKC,0.00,16.0,WeatherDisplay:10.37,2013-05-12 13:27:00,
2013-05-12 06:32:00,51.2,49.2,30.04,WSW,251,0.0,0.0,93,0.00,OVC,SKC,0.00,19.0,WeatherDisplay:10.37,2013-05-12 13:32:00,
2013-05-12 06:37:00,51.1,49.1,30.04,WSW,251,2.3,2.3,93,0.00,OVC,SKC,0.00,23.0,WeatherDisplay:10.37,2013-05-12 13:37:00,
2013-05-12 06:42:00,51.4,49.4,30.04,WSW,252,0.0,0.0,93,0.00,OVC,SKC,0.00,35.0,WeatherDisplay:10.37,2013-05-12 13:42:00,
2013-05-12 06:47:00,52.1,50.1,30.04,ESE,119,5.8,5.8,93,0.00,OVC,SKC,0.00,37.0,WeatherDisplay:10.37,2013-05-12 13:47:00,
2013-05-12 06:52:00,52.4,50.4,30.04,SE,130,4.6,4.6,93,0.00,OVC,SKC,0.00,39.0,WeatherDisplay:10.37,2013-05-12 13:52:00,
2013-05-12 06:57:00,52.4,50.4,30.05,SE,129,1.2,1.2,93,0.00,OVC,SKC,0.00,37.0,WeatherDisplay:10.37,2013-05-12 13:57:00,
2013-05-12 07:02:00,52.3,50.3,30.05,SE,129,0.0,0.0,93,0.00,OVC,SKC,0.00,35.0,WeatherDisplay:10.37,2013-05-12 14:02:00,
2013-05-12 07:07:00,52.2,50.2,30.05,SE,129,2.3,2.3,93,0.00,OVC,SKC,0.00,39.0,WeatherDisplay:10.37,2013-05-12 14:07:00,
2013-05-12 07:12:00,52.1,50.1,30.05,SE,129,0.0,0.0,93,0.00,OVC,SKC,0.00,49.0,WeatherDisplay:10.37,2013-05-12 14:12:00,
2013-05-12 07:17:00,52.1,50.1,30.05,SE,129,1.2,0.0,93,0.00,OVC,SKC,0.00,56.0,WeatherDisplay:10.37,2013-05-12 14:17:00,
2013-05-12 07:22:00,52.1,50.1,30.05,SE,129,1.2,1.2,93,0.00,OVC,SKC,0.00,79.0,WeatherDisplay:10.37,2013-05-12 14:22:00,
2013-05-12 07:27:00,52.0,50.0,30.05,SE,129,2.3,2.3,93,0.00,OVC,SKC,0.00,90.0,WeatherDisplay:10.37,2013-05-12 14:27:00,
2013-05-12 07:32:00,52.1,50.1,30.05,SE,129,2.3,2.3,93,0.00,OVC,SKC,0.00,58.0,WeatherDisplay:10.37,2013-05-12 14:32:00,
2013-05-12 07:37:00,51.9,49.9,30.05,SE,129,2.3,0.0,93,0.00,OVC,SKC,0.00,90.0,WeatherDisplay:10.37,2013-05-12 14:37:00,
2013-05-12 07:42:00,51.9,49.9,30.05,SE,129,2.3,2.3,93,0.00,OVC,SKC,0.00,84.0,WeatherDisplay:10.37,2013-05-12 14:42:00,
2013-05-12 07:47:00,51.8,49.8,30.05,SE,134,3.5,3.5,93,0.00,OVC,SKC,0.00,118.0,WeatherDisplay:10.37,2013-05-12 14:47:00,
2013-05-12 07:52:00,51.7,49.7,30.05,SE,132,3.5,3.5,93,0.00,OVC,SKC,0.00,100.0,WeatherDisplay:10.37,2013-05-12 14:52:00,
2013-05-12 07:57:00,51.7,49.7,30.05,SE,132,2.3,2.3,93,0.00,OVC,SKC,0.00,121.0,WeatherDisplay:10.37,2013-05-12 14:57:00,
2013-05-12 08:02:00,51.6,49.6,30.05,SE,130,4.6,4.6,93,0.00,OVC,SKC,0.00,139.0,WeatherDisplay:10.37,2013-05-12 15:02:00,
2013-05-12 08:07:00,51.6,49.6,30.05,SE,130,1.2,1.2,93,0.00,OVC,SKC,0.00,135.0,WeatherDisplay:10.37,2013-05-12 15:07:00,
2013-05-12 08:12:00,51.7,49.7,30.05,SE,130,3.5,3.5,93,0.00,OVC,SKC,0.00,155.0,WeatherDisplay:10.37,2013-05-12 15:12:00,
2013-05-12 08:17:00,51.8,49.8,30.05,SE,129,3.5,3.5,93,0.00,OVC,SKC,0.00,179.0,WeatherDisplay:10.37,2013-05-12 15:17:00,
2013-05-12 08:22:00,51.8,49.8,30.05,SE,128,3.5,3.5,93,0.00,OVC,SKC,0.00,183.0,WeatherDisplay:10.37,2013-05-12 15:22:00,
2013-05-12 08:27:00,51.9,49.9,30.06,SE,128,4.6,4.6,93,0.00,OVC,SKC,0.00,221.0,WeatherDisplay:10.37,2013-05-12 15:27:00,
2013-05-12 08:32:00,51.8,49.8,30.06,SE,128,2.3,2.3,93,0.00,OVC,SKC,0.00,243.0,WeatherDisplay:10.37,2013-05-12 15:32:00,
2013-05-12 08:37:00,51.9,49.9,30.06,SE,126,2.3,2.3,93,0.00,OVC,SKC,0.00,274.0,WeatherDisplay:10.37,2013-05-12 15:37:00,
2013-05-12 08:42:00,51.9,49.9,30.06,SE,126,3.5,3.5,93,0.00,OVC,SKC,0.00,271.0,WeatherDisplay:10.37,2013-05-12 15:42:00,
2013-05-12 08:47:00,52.1,50.1,30.06,SE,126,3.5,3.5,93,0.00,OVC,SKC,0.00,278.0,WeatherDisplay:10.37,2013-05-12 15:47:00,
2013-05-12 08:52:00,52.2,50.2,30.06,ESE,109,4.6,4.6,93,0.00,OVC,SKC,0.00,306.0,WeatherDisplay:10.37,2013-05-12 15:52:00,
2013-05-12 08:57:00,52.2,50.2,30.06,ESE,117,3.5,3.5,93,0.00,OVC,SKC,0.00,299.0,WeatherDisplay:10.37,2013-05-12 15:57:00,
2013-05-12 09:02:00,52.3,50.3,30.06,ESE,113,2.3,2.3,93,0.00,OVC,SKC,0.00,311.0,WeatherDisplay:10.37,2013-05-12 16:02:00,
2013-05-12 09:07:00,52.5,50.5,30.06,ESE,113,4.6,4.6,93,0.00,OVC,SKC,0.00,262.0,WeatherDisplay:10.37,2013-05-12 16:07:00,
2013-05-12 09:12:00,52.6,50.6,30.06,ESE,111,1.2,0.0,93,0.00,OVC,SKC,0.00,345.0,WeatherDisplay:10.37,2013-05-12 16:12:00,
2013-05-12 09:17:00,52.6,50.6,30.06,ESE,104,3.5,3.5,93,0.00,OVC,SKC,0.00,366.0,WeatherDisplay:10.37,2013-05-12 16:17:00,
2013-05-12 09:22:00,52.8,50.8,30.06,SE,125,5.8,5.8,93,0.00,OVC,SKC,0.00,332.0,WeatherDisplay:10.37,2013-05-12 16:22:00,
2013-05-12 09:27:00,53.1,51.1,30.06,SE,129,4.0,4.0,93,0.00,OVC,SKC,0.00,388.0,WeatherDisplay:10.37,2013-05-12 16:27:00,
2013-05-12 09:32:00,53.2,51.2,30.06,SSE,156,4.6,4.6,93,0.00,OVC,SKC,0.00,362.0,WeatherDisplay:10.37,2013-05-12 16:32:00,
2013-05-12 09:37:00,53.6,51.6,30.06,ESE,118,3.5,3.5,93,0.00,OVC,SKC,0.00,366.0,WeatherDisplay:10.37,2013-05-12 16:37:00,
2013-05-12 09:42:00,53.9,51.9,30.06,SE,140,3.5,3.5,93,0.00,OVC,SKC,0.00,455.0,WeatherDisplay:10.37,2013-05-12 16:42:00,
2013-05-12 09:47:00,53.4,51.4,30.06,SSE,153,6.9,6.9,93,0.00,OVC,SKC,0.00,496.0,WeatherDisplay:10.37,2013-05-12 16:47:00,
2013-05-12 09:52:00,53.3,51.3,30.06,SE,144,5.0,5.0,93,0.00,OVC,SKC,0.00,455.0,WeatherDisplay:10.37,2013-05-12 16:52:00,
2013-05-12 09:57:00,53.5,51.5,30.06,SSE,149,5.8,5.8,93,0.00,OVC,SKC,0.00,429.0,WeatherDisplay:10.37,2013-05-12 16:57:00,
2013-05-12 10:02:00,53.4,51.4,30.06,SSE,148,4.0,4.0,93,0.00,OVC,SKC,0.00,427.0,WeatherDisplay:10.37,2013-05-12 17:02:00,
2013-05-12 10:07:00,53.5,51.5,30.06,SSE,155,4.6,4.6,93,0.00,OVC,SKC,0.00,464.0,WeatherDisplay:10.37,2013-05-12 17:07:00,
2013-05-12 10:12:00,53.6,51.6,30.06,SSE,155,3.5,3.5,93,0.00,OVC,SKC,0.00,508.0,WeatherDisplay:10.37,2013-05-12 17:12:00,
2013-05-12 10:17:00,54.0,52.0,30.06,SSE,161,5.8,5.8,93,0.00,OVC,SKC,0.00,446.0,WeatherDisplay:10.37,2013-05-12 17:17:00,
2013-05-12 10:22:00,53.7,51.7,30.06,South,184,3.5,3.5,93,0.00,OVC,SKC,0.00,425.0,WeatherDisplay:10.37,2013-05-12 17:22:00,
2013-05-12 10:27:00,53.5,51.2,30.06,South,185,4.6,4.6,92,0.00,OVC,SKC,0.00,559.0,WeatherDisplay:10.37,2013-05-12 17:27:00,
2013-05-12 10:32:00,53.5,51.2,30.06,SSW,196,4.6,4.6,92,0.00,OVC,SKC,0.00,580.0,WeatherDisplay:10.37,2013-05-12 17:32:00,
2013-05-12 10:37:00,53.9,51.9,30.06,South,182,4.6,4.6,93,0.00,OVC,SKC,0.00,541.0,WeatherDisplay:10.37,2013-05-12 17:37:00,
2013-05-12 10:42:00,53.8,51.5,30.06,SSW,202,3.5,3.5,92,0.00,OVC,SKC,0.00,687.0,WeatherDisplay:10.37,2013-05-12 17:42:00,
2013-05-12 10:47:00,53.7,51.4,30.06,SW,233,3.5,3.5,92,0.00,OVC,SKC,0.00,591.0,WeatherDisplay:10.37,2013-05-12 17:47:00,
2013-05-12 10:52:00,53.9,51.6,30.06,SSW,205,6.9,6.9,92,0.00,OVC,SKC,0.00,902.0,WeatherDisplay:10.37,2013-05-12 17:52:00,
2013-05-12 10:57:00,54.4,52.1,30.06,SW,215,4.6,4.6,92,0.00,OVC,SKC,0.00,898.0,WeatherDisplay:10.37,2013-05-12 17:57:00,
2013-05-12 11:02:00,54.4,52.1,30.06,SSW,196,6.9,6.9,92,0.00,OVC,SKC,0.00,844.0,WeatherDisplay:10.37,2013-05-12 18:02:00,
2013-05-12 11:07:00,54.2,51.6,30.06,SSW,192,3.5,3.5,91,0.00,OVC,SKC,0.00,805.0,WeatherDisplay:10.37,2013-05-12 18:07:00,
2013-05-12 11:12:00,54.8,52.5,30.06,SSW,192,3.5,3.5,92,0.00,OVC,SKC,0.00,831.0,WeatherDisplay:10.37,2013-05-12 18:12:00,
2013-05-12 11:17:00,55.4,52.8,30.06,South,174,4.6,4.6,91,0.00,OVC,SKC,0.00,840.0,WeatherDisplay:10.37,2013-05-12 18:17:00,
2013-05-12 11:22:00,55.5,52.6,30.06,SW,219,4.6,4.6,90,0.00,OVC,SKC,0.00,849.0,WeatherDisplay:10.37,2013-05-12 18:22:00,
2013-05-12 11:27:00,55.9,53.0,30.06,South,169,4.6,4.6,90,0.00,OVC,SKC,0.00,858.0,WeatherDisplay:10.37,2013-05-12 18:27:00,
2013-05-12 11:32:00,56.6,53.7,30.06,South,177,5.0,5.0,90,0.00,OVC,SKC,0.00,865.0,WeatherDisplay:10.37,2013-05-12 18:32:00,
2013-05-12 11:37:00,56.3,53.1,30.06,South,184,4.6,4.6,89,0.00,OVC,SKC,0.00,872.0,WeatherDisplay:10.37,2013-05-12 18:37:00,
2013-05-12 11:42:00,56.6,53.1,30.05,SSW,197,4.6,4.6,88,0.00,OVC,SKC,0.00,881.0,WeatherDisplay:10.37,2013-05-12 18:42:00,
2013-05-12 11:47:00,57.1,53.9,30.05,SSW,207,4.6,4.6,89,0.00,OVC,SKC,0.00,886.0,WeatherDisplay:10.37,2013-05-12 18:47:00,
2013-05-12 11:52:00,57.4,53.9,30.05,SSE,161,5.0,5.0,88,0.00,OVC,SKC,0.00,891.0,WeatherDisplay:10.37,2013-05-12 18:52:00,
2013-05-12 11:57:00,58.0,54.2,30.05,SSE,159,5.8,5.8,87,0.00,OVC,SKC,0.00,898.0,WeatherDisplay:10.37,2013-05-12 18:57:00,
2013-05-12 12:02:00,57.9,53.7,30.05,SSE,153,4.6,4.7,86,0.00,OVC,SKC,0.00,904.0,WeatherDisplay:10.37,2013-05-12 19:02:00,
2013-05-12 12:07:00,57.7,53.9,30.05,SSE,156,5.8,5.8,87,0.00,OVC,SKC,0.00,909.0,WeatherDisplay:10.37,2013-05-12 19:07:00,
2013-05-12 12:12:00,58.0,54.5,30.05,SSE,155,5.8,5.8,88,0.00,OVC,SKC,0.00,914.0,WeatherDisplay:10.37,2013-05-12 19:12:00,
2013-05-12 12:17:00,58.4,54.5,30.05,SSE,149,6.0,6.0,87,0.00,OVC,SKC,0.00,918.0,WeatherDisplay:10.37,2013-05-12 19:17:00,
2013-05-12 12:22:00,59.0,54.8,30.05,South,170,4.6,4.6,86,0.00,OVC,SKC,0.00,923.0,WeatherDisplay:10.37,2013-05-12 19:22:00,
2013-05-12 12:27:00,60.1,55.6,30.04,SE,140,4.6,4.6,85,0.00,OVC,SKC,0.00,928.0,WeatherDisplay:10.37,2013-05-12 19:27:00,
2013-05-12 12:32:00,60.6,55.7,30.04,SSE,157,5.0,5.0,84,0.00,OVC,SKC,0.00,932.0,WeatherDisplay:10.37,2013-05-12 19:32:00,
2013-05-12 12:37:00,61.4,55.9,30.04,SSW,211,4.6,4.6,82,0.00,OVC,SKC,0.00,932.0,WeatherDisplay:10.37,2013-05-12 19:37:00,
2013-05-12 12:42:00,62.3,56.4,30.04,SSE,160,5.8,5.8,81,0.00,OVC,SKC,0.00,937.0,WeatherDisplay:10.37,2013-05-12 19:42:00,
2013-05-12 12:47:00,62.5,55.9,30.04,SSE,153,6.0,6.0,79,0.00,OVC,SKC,0.00,939.0,WeatherDisplay:10.37,2013-05-12 19:47:00,
2013-05-12 12:52:00,62.6,56.0,30.04,SSE,157,5.8,5.8,79,0.00,OVC,SKC,0.00,942.0,WeatherDisplay:10.37,2013-05-12 19:52:00,
2013-05-12 12:57:00,61.4,55.5,30.03,SSE,160,6.9,6.9,81,0.00,OVC,SKC,0.00,942.0,WeatherDisplay:10.37,2013-05-12 19:57:00,
2013-05-12 13:02:00,60.4,55.2,30.03,South,171,5.8,5.8,83,0.00,OVC,SKC,0.00,942.0,WeatherDisplay:10.37,2013-05-12 20:02:00,
2013-05-12 13:07:00,59.5,55.3,30.03,SE,138,6.9,6.9,86,0.00,OVC,SKC,0.00,940.0,WeatherDisplay:10.37,2013-05-12 20:07:00,
2013-05-12 13:12:00,59.4,55.2,30.03,SE,140,6.9,6.9,86,0.00,OVC,SKC,0.00,942.0,WeatherDisplay:10.37,2013-05-12 20:12:00,
2013-05-12 13:17:00,59.3,54.8,30.03,SE,145,6.9,6.9,85,0.00,OVC,SKC,0.00,940.0,WeatherDisplay:10.37,2013-05-12 20:17:00,
2013-05-12 13:22:00,59.2,55.0,30.03,SSE,153,6.9,6.9,86,0.00,OVC,SKC,0.00,940.0,WeatherDisplay:10.37,2013-05-12 20:22:00,
2013-05-12 13:27:00,59.8,55.9,30.02,SE,130,6.0,6.0,87,0.00,OVC,SKC,0.00,937.0,WeatherDisplay:10.37,2013-05-12 20:27:00,
2013-05-12 13:32:00,59.7,55.8,30.02,East,101,4.6,4.8,87,0.00,OVC,SKC,0.00,937.0,WeatherDisplay:10.37,2013-05-12 20:32:00,
2013-05-12 13:37:00,59.6,55.7,30.02,SSE,148,5.8,5.8,87,0.00,OVC,SKC,0.00,933.0,WeatherDisplay:10.37,2013-05-12 20:37:00,
2013-05-12 13:42:00,59.5,55.6,30.02,SE,144,7.0,7.0,87,0.00,OVC,SKC,0.00,928.0,WeatherDisplay:10.37,2013-05-12 20:42:00,
2013-05-12 13:47:00,60.0,56.1,30.02,ESE,117,5.8,5.8,87,0.00,OVC,SKC,0.00,930.0,WeatherDisplay:10.37,2013-05-12 20:47:00,
2013-05-12 13:52:00,60.2,56.0,30.02,SE,130,6.9,6.9,86,0.00,OVC,SKC,0.00,925.0,WeatherDisplay:10.37,2013-05-12 20:52:00,
2013-05-12 13:57:00,60.2,56.0,30.02,SE,124,6.9,6.9,86,0.00,OVC,SKC,0.00,925.0,WeatherDisplay:10.37,2013-05-12 20:57:00,
2013-05-12 14:02:00,60.4,56.5,30.02,SE,129,5.8,5.8,87,0.00,OVC,SKC,0.00,921.0,WeatherDisplay:10.37,2013-05-12 21:02:00,
2013-05-12 14:07:00,60.6,56.4,30.02,ESE,123,4.6,4.6,86,0.00,BKN,SKC,0.00,918.0,WeatherDisplay:10.37,2013-05-12 21:07:00,
2013-05-12 14:12:00,61.1,56.9,30.01,SE,138,6.0,6.0,86,0.00,FEW,SKC,0.00,912.0,WeatherDisplay:10.37,2013-05-12 21:12:00,
2013-05-12 14:17:00,61.4,56.5,30.01,ESE,103,5.8,5.8,84,0.00,CLR,SKC,0.00,909.0,WeatherDisplay:10.37,2013-05-12 21:17:00,
2013-05-12 14:22:00,61.1,56.6,30.01,ESE,109,5.0,5.0,85,0.00,CLR,SKC,0.00,902.0,WeatherDisplay:10.37,2013-05-12 21:22:00,
2013-05-12 14:27:00,61.1,56.9,30.01,ESE,107,7.0,7.0,86,0.00,CLR,SKC,0.00,895.0,WeatherDisplay:10.37,2013-05-12 21:27:00,
2013-05-12 14:32:00,61.1,56.9,30.01,SE,128,6.0,6.0,86,0.00,CLR,SKC,0.00,888.0,WeatherDisplay:10.37,2013-05-12 21:32:00,
2013-05-12 14:37:00,61.4,56.8,30.01,ESE,118,6.9,6.9,85,0.00,CLR,SKC,0.00,879.0,WeatherDisplay:10.37,2013-05-12 21:37:00,
2013-05-12 14:42:00,61.3,56.8,30.00,SE,138,5.8,5.8,85,0.00,CLR,SKC,0.00,872.0,WeatherDisplay:10.37,2013-05-12 21:42:00,
2013-05-12 14:47:00,61.4,56.8,30.00,East,90,6.9,6.9,85,0.00,CLR,SKC,0.00,867.0,WeatherDisplay:10.37,2013-05-12 21:47:00,
2013-05-12 14:52:00,61.4,57.2,30.00,East,100,8.1,8.1,86,0.00,CLR,SKC,0.00,860.0,WeatherDisplay:10.37,2013-05-12 21:52:00,
2013-05-12 14:57:00,61.3,57.1,29.99,ESE,113,5.0,5.0,86,0.00,CLR,SKC,0.00,847.0,WeatherDisplay:10.37,2013-05-12 21:57:00,
2013-05-12 15:02:00,61.3,57.4,29.99,ESE,118,5.8,5.8,87,0.00,CLR,SKC,0.00,840.0,WeatherDisplay:10.37,2013-05-12 22:02:00,
2013-05-12 15:07:00,61.7,57.5,29.99,ESE,115,4.6,4.6,86,0.00,CLR,SKC,0.00,826.0,WeatherDisplay:10.37,2013-05-12 22:07:00,
2013-05-12 15:12:00,62.3,57.7,29.99,East,92,4.6,4.6,85,0.00,CLR,SKC,0.00,819.0,WeatherDisplay:10.37,2013-05-12 22:12:00,
2013-05-12 15:17:00,63.1,58.2,29.99,East,101,6.9,6.9,84,0.00,CLR,SKC,0.00,812.0,WeatherDisplay:10.37,2013-05-12 22:17:00,
2013-05-12 15:22:00,62.9,58.0,29.99,East,95,6.9,6.9,84,0.00,CLR,SKC,0.00,800.0,WeatherDisplay:10.37,2013-05-12 22:22:00,
2013-05-12 15:27:00,63.2,58.3,29.98,East,84,6.9,6.9,84,0.00,CLR,SKC,0.00,791.0,WeatherDisplay:10.37,2013-05-12 22:27:00,
2013-05-12 15:33:00,62.7,57.8,29.98,NE,55,5.8,5.8,84,0.00,CLR,SKC,0.00,780.0,WeatherDisplay:10.37,2013-05-12 22:33:00,
2013-05-12 15:38:00,62.9,58.0,29.98,ESE,109,5.8,5.8,84,0.00,CLR,SKC,0.00,766.0,WeatherDisplay:10.37,2013-05-12 22:38:00,
2013-05-12 15:43:00,62.6,57.4,29.98,ESE,115,6.9,6.9,83,0.00,CLR,SKC,0.00,754.0,WeatherDisplay:10.37,2013-05-12 22:43:00,
2013-05-12 15:48:00,62.6,57.4,29.98,ESE,102,5.8,5.8,83,0.00,CLR,SKC,0.00,744.0,WeatherDisplay:10.37,2013-05-12 22:48:00,
2013-05-12 15:53:00,63.4,58.1,29.98,East,84,3.5,3.5,83,0.00,CLR,SKC,0.00,729.0,WeatherDisplay:10.37,2013-05-12 22:53:00,
2013-05-12 15:58:00,63.8,58.2,29.98,ESE,106,6.9,6.9,82,0.00,CLR,SKC,0.00,719.0,WeatherDisplay:10.37,2013-05-12 22:58:00,
2013-05-12 16:03:00,63.4,58.1,29.98,ESE,113,7.0,7.0,83,0.00,CLR,SKC,0.00,703.0,WeatherDisplay:10.37,2013-05-12 23:03:00,
2013-05-12 16:08:00,63.5,58.2,29.98,SE,125,8.1,8.1,83,0.00,CLR,SKC,0.00,696.0,WeatherDisplay:10.37,2013-05-12 23:08:00,
2013-05-12 16:13:00,63.0,58.1,29.97,ESE,107,8.0,8.0,84,0.00,CLR,SKC,0.00,679.0,WeatherDisplay:10.37,2013-05-12 23:13:00,
2013-05-12 16:18:00,62.8,57.9,29.97,SE,128,9.2,9.2,84,0.00,CLR,SKC,0.00,666.0,WeatherDisplay:10.37,2013-05-12 23:18:00,
2013-05-12 16:23:00,62.6,57.7,29.97,ESE,119,10.4,10.4,84,0.00,CLR,SKC,0.00,652.0,WeatherDisplay:10.37,2013-05-12 23:23:00,
2013-05-12 16:28:00,62.2,57.3,29.97,ESE,113,12.7,12.7,84,0.00,CLR,SKC,0.00,638.0,WeatherDisplay:10.37,2013-05-12 23:28:00,
2013-05-12 16:33:00,62.2,57.6,29.97,SE,136,9.2,9.2,85,0.00,CLR,SKC,0.00,622.0,WeatherDisplay:10.37,2013-05-12 23:33:00,
2013-05-12 16:38:00,62.2,57.3,29.97,SSE,148,11.5,11.5,84,0.00,CLR,SKC,0.00,608.0,WeatherDisplay:10.37,2013-05-12 23:38:00,
2013-05-12 16:43:00,62.1,57.2,29.97,ESE,114,11.5,11.5,84,0.00,CLR,SKC,0.00,598.0,WeatherDisplay:10.37,2013-05-12 23:43:00,
2013-05-12 16:48:00,61.9,57.0,29.97,SE,136,8.1,8.1,84,0.00,CLR,SKC,0.00,584.0,WeatherDisplay:10.37,2013-05-12 23:48:00,
2013-05-12 16:53:00,61.6,56.7,29.97,SE,144,11.5,11.5,84,0.00,CLR,SKC,0.00,566.0,WeatherDisplay:10.37,2013-05-12 23:53:00,
2013-05-12 16:58:00,61.6,56.7,29.97,ESE,107,12.7,12.7,84,0.00,CLR,SKC,0.00,552.0,WeatherDisplay:10.37,2013-05-12 23:58:00,
2013-05-12 17:03:00,61.3,56.4,29.97,ESE,112,8.1,8.1,84,0.00,CLR,SKC,0.00,534.0,WeatherDisplay:10.37,2013-05-13 00:03:00,
2013-05-12 17:08:00,61.2,56.7,29.97,SE,126,5.8,5.8,85,0.00,CLR,SKC,0.00,520.0,WeatherDisplay:10.37,2013-05-13 00:08:00,
2013-05-12 17:13:00,61.2,56.3,29.97,ESE,112,6.9,6.9,84,0.00,CLR,SKC,0.00,504.0,WeatherDisplay:10.37,2013-05-13 00:13:00,
2013-05-12 17:18:00,61.4,56.5,29.97,ESE,116,9.2,9.2,84,0.00,CLR,SKC,0.00,492.0,WeatherDisplay:10.37,2013-05-13 00:18:00,
2013-05-12 17:23:00,61.1,56.2,29.97,SSE,148,4.6,4.6,84,0.00,FEW,SKC,0.00,476.0,WeatherDisplay:10.37,2013-05-13 00:23:00,
2013-05-12 17:28:00,61.3,56.4,29.96,ESE,111,4.0,4.0,84,0.00,FEW,SKC,0.00,459.0,WeatherDisplay:10.37,2013-05-13 00:28:00,
2013-05-12 17:33:00,61.6,56.4,29.96,SSE,163,5.8,5.8,83,0.00,SCT,SKC,0.00,443.0,WeatherDisplay:10.37,2013-05-13 00:33:00,
2013-05-12 17:38:00,61.7,56.5,29.96,ESE,107,6.0,6.0,83,0.00,SCT,SKC,0.00,427.0,WeatherDisplay:10.37,2013-05-13 00:38:00,
2013-05-12 17:43:00,61.6,56.4,29.96,ESE,106,6.9,6.9,83,0.00,SCT,SKC,0.00,411.0,WeatherDisplay:10.37,2013-05-13 00:43:00,
2013-05-12 17:48:00,61.8,56.2,29.96,SE,136,5.8,5.8,82,0.00,SCT,SKC,0.00,396.0,WeatherDisplay:10.37,2013-05-13 00:48:00,
2013-05-12 17:53:00,61.8,56.2,29.96,South,173,6.9,6.9,82,0.00,SCT,SKC,0.00,380.0,WeatherDisplay:10.37,2013-05-13 00:53:00,
2013-05-12 17:58:00,61.8,56.2,29.96,South,171,6.9,6.9,82,0.00,SCT,SKC,0.00,364.0,WeatherDisplay:10.37,2013-05-13 00:58:00,
2013-05-12 18:03:00,61.9,56.3,29.96,SE,129,2.3,2.3,82,0.00,BKN,SKC,0.00,346.0,WeatherDisplay:10.37,2013-05-13 01:03:00,
2013-05-12 18:08:00,62.0,56.1,29.96,SSE,167,5.8,5.8,81,0.00,BKN,SKC,0.00,327.0,WeatherDisplay:10.37,2013-05-13 01:08:00,
2013-05-12 18:13:00,61.6,56.0,29.96,SE,137,3.5,3.5,82,0.00,BKN,SKC,0.00,308.0,WeatherDisplay:10.37,2013-05-13 01:13:00,
2013-05-12 18:18:00,61.3,55.8,29.96,SE,135,7.0,7.0,82,0.00,BKN,SKC,0.00,292.0,WeatherDisplay:10.37,2013-05-13 01:18:00,
2013-05-12 18:23:00,60.8,55.6,29.96,SE,138,6.9,6.9,83,0.00,BKN,SKC,0.00,276.0,WeatherDisplay:10.37,2013-05-13 01:23:00,
2013-05-12 18:28:00,60.5,55.3,29.95,SSE,155,5.8,5.8,83,0.00,BKN,SKC,0.00,258.0,WeatherDisplay:10.37,2013-05-13 01:28:00,
2013-05-12 18:33:00,60.3,55.4,29.95,ESE,118,3.5,3.5,84,0.00,BKN,SKC,0.00,244.0,WeatherDisplay:10.37,2013-05-13 01:33:00,
2013-05-12 18:38:00,60.4,55.5,29.95,South,175,5.8,5.8,84,0.00,BKN,SKC,0.00,227.0,WeatherDisplay:10.37,2013-05-13 01:38:00,
2013-05-12 18:43:00,60.9,56.0,29.95,SE,132,2.3,2.3,84,0.00,BKN,SKC,0.00,209.0,WeatherDisplay:10.37,2013-05-13 01:43:00,
2013-05-12 18:48:00,60.9,55.7,29.95,ENE,78,5.8,5.8,83,0.00,BKN,SKC,0.00,193.0,WeatherDisplay:10.37,2013-05-13 01:48:00,
2013-05-12 18:53:00,60.4,55.5,29.95,East,80,3.5,3.5,84,0.00,BKN,SKC,0.00,176.0,WeatherDisplay:10.37,2013-05-13 01:53:00,
2013-05-12 18:58:00,60.0,55.2,29.95,ESE,109,2.3,2.3,84,0.00,BKN,SKC,0.00,160.0,WeatherDisplay:10.37,2013-05-13 01:58:00,
2013-05-12 19:03:00,59.6,55.1,29.95,ESE,119,5.8,5.8,85,0.00,BKN,SKC,0.00,144.0,WeatherDisplay:10.37,2013-05-13 02:03:00,
2013-05-12 19:08:00,59.5,55.3,29.95,East,98,8.1,8.1,86,0.00,BKN,SKC,0.00,130.0,WeatherDisplay:10.37,2013-05-13 02:08:00,
2013-05-12 19:13:00,59.2,55.0,29.95,ESE,102,7.0,7.0,86,0.00,BKN,SKC,0.00,118.0,WeatherDisplay:10.37,2013-05-13 02:13:00,
2013-05-12 19:18:00,59.0,55.1,29.95,SE,134,5.8,5.8,87,0.00,BKN,SKC,0.00,102.0,WeatherDisplay:10.37,2013-05-13 02:18:00,
2013-05-12 19:23:00,58.8,54.9,29.95,SSE,155,9.2,9.2,87,0.00,BKN,SKC,0.00,88.0,WeatherDisplay:10.37,2013-05-13 02:23:00,
2013-05-12 19:28:00,58.6,55.1,29.95,SE,128,7.0,7.0,88,0.00,BKN,SKC,0.00,65.0,WeatherDisplay:10.37,2013-05-13 02:28:00,
2013-05-12 19:33:00,58.5,55.0,29.95,ESE,108,5.8,5.8,88,0.00,OVC,SKC,0.00,26.0,WeatherDisplay:10.37,2013-05-13 02:33:00,
2013-05-12 19:38:00,58.5,55.0,29.95,SE,126,9.2,9.2,88,0.00,OVC,SKC,0.00,21.0,WeatherDisplay:10.37,2013-05-13 02:38:00,
2013-05-12 19:43:00,58.4,54.9,29.95,ESE,113,5.8,5.8,88,0.00,OVC,SKC,0.00,18.0,WeatherDisplay:10.37,2013-05-13 02:43:00,
2013-05-12 19:48:00,58.3,54.8,29.95,ESE,121,5.0,5.0,88,0.00,OVC,SKC,0.00,16.0,WeatherDisplay:10.37,2013-05-13 02:48:00,
2013-05-12 19:53:00,58.2,55.0,29.95,SE,129,4.6,4.6,89,0.00,OVC,SKC,0.00,12.0,WeatherDisplay:10.37,2013-05-13 02:53:00,
2013-05-12 19:58:00,58.2,55.0,29.95,SE,145,4.6,4.6,89,0.00,OVC,SKC,0.00,9.0,WeatherDisplay:10.37,2013-05-13 02:58:00,
2013-05-12 20:03:00,58.1,54.9,29.95,SSE,156,9.2,9.2,89,0.00,OVC,SKC,0.00,7.0,WeatherDisplay:10.37,2013-05-13 03:03:00,
2013-05-12 20:08:00,58.1,54.9,29.95,SE,141,4.6,4.6,89,0.00,OVC,SKC,0.00,5.0,WeatherDisplay:10.37,2013-05-13 03:08:00,
2013-05-12 20:13:00,58.0,54.8,29.95,ESE,111,11.0,11.0,89,0.00,OVC,SKC,0.00,0.0,WeatherDisplay:10.37,2013-05-13 03:13:00,
2013-05-12 20:18:00,57.8,54.6,29.95,SE,137,6.9,6.9,89,0.00,OVC,SKC,0.00,0.0,WeatherDisplay:10.37,2013-05-13 03:18:00,
2013-05-12 20:23:00,57.6,54.4,29.95,East,101,11.5,11.5,89,0.00,OVC,SKC,0.00,0.0,WeatherDisplay:10.37,2013-05-13 03:23:00,
2013-05-12 20:28:00,57.5,54.3,29.96,SSE,157,5.8,5.8,89,0.00,OVC,SKC,0.00,0.0,WeatherDisplay:10.37,2013-05-13 03:28:00,
2013-05-12 20:33:00,57.4,54.2,29.96,SE,130,6.9,6.9,89,0.00,OVC,SKC,0.00,0.0,WeatherDisplay:10.37,2013-05-13 03:33:00,
2013-05-12 20:38:00,57.3,54.1,29.96,ESE,118,4.6,4.6,89,0.00,,SKC,0.00,0.0,WeatherDisplay:10.37,2013-05-13 03:38:00,
2013-05-12 20:43:00,57.3,54.1,29.96,SE,130,5.8,5.8,89,0.00,,SKC,0.00,0.0,WeatherDisplay:10.37,2013-05-13 03:43:00,
2013-05-12 20:48:00,57.1,53.9,29.96,SE,131,5.8,5.8,89,0.00,,SKC,0.00,0.0,WeatherDisplay:10.37,2013-05-13 03:48:00,
2013-05-12 20:53:00,57.1,54.2,29.96,SE,127,5.8,5.8,90,0.00,,SKC,0.00,0.0,WeatherDisplay:10.37,2013-05-13 03:53:00,
2013-05-12 20:58:00,57.1,54.2,29.96,ESE,123,7.0,7.0,90,0.00,,SKC,0.00,0.0,WeatherDisplay:10.37,2013-05-13 03:58:00,
2013-05-12 21:01:00,57.0,54.1,29.96,ESE,119,5.8,5.8,90,0.00,,SKC,0.00,0.0,WeatherDisplay:10.37,2013-05-13 04:01:00,
2013-05-12 21:06:00,56.8,54.5,29.96,ESE,109,8.1,8.1,92,0.00,,SKC,0.00,0.0,WeatherDisplay:10.37,2013-05-13 04:06:00,
2013-05-12 21:11:00,56.8,53.9,29.97,ESE,117,4.0,4.0,90,0.00,,SKC,0.00,0.0,WeatherDisplay:10.37,2013-05-13 04:11:00,
2013-05-12 21:16:00,56.8,53.9,29.97,SE,129,6.9,6.9,90,0.00,,SKC,0.00,0.0,WeatherDisplay:10.37,2013-05-13 04:16:00,
2013-05-12 21:21:00,56.6,53.7,29.97,ESE,111,6.9,6.9,90,0.00,,SKC,0.00,0.0,WeatherDisplay:10.37,2013-05-13 04:21:00,
2013-05-12 21:26:00,56.5,53.6,29.97,SSE,148,5.8,5.8,90,0.00,,SKC,0.00,0.0,WeatherDisplay:10.37,2013-05-13 04:26:00,
2013-05-12 21:31:00,56.4,53.5,29.97,SE,125,5.0,5.0,90,0.00,,SKC,0.00,0.0,WeatherDisplay:10.37,2013-05-13 04:31:00,
2013-05-12 21:36:00,56.3,53.4,29.97,SE,135,4.6,4.6,90,0.00,,SKC,0.00,0.0,WeatherDisplay:10.37,2013-05-13 04:36:00,
2013-05-12 21:41:00,56.2,53.3,29.98,SE,140,5.8,5.8,90,0.00,,SKC,0.00,0.0,WeatherDisplay:10.37,2013-05-13 04:41:00,
2013-05-12 21:46:00,56.2,53.3,29.98,ESE,114,6.9,6.9,90,0.00,,SKC,0.00,0.0,WeatherDisplay:10.37,2013-05-13 04:46:00,
2013-05-12 21:51:00,56.1,53.2,29.98,SE,135,6.9,6.9,90,0.00,,SKC,0.00,0.0,WeatherDisplay:10.37,2013-05-13 04:51:00,
2013-05-12 21:56:00,56.0,53.1,29.98,SE,134,4.6,4.6,90,0.00,,SKC,0.00,0.0,WeatherDisplay:10.37,2013-05-13 04:56:00,
2013-05-12 22:01:00,55.9,53.0,29.98,ESE,123,6.0,6.0,90,0.00,,SKC,0.00,0.0,WeatherDisplay:10.37,2013-05-13 05:01:00,
2013-05-12 22:06:00,55.9,53.0,29.98,SE,132,4.0,4.0,90,0.00,,SKC,0.00,0.0,WeatherDisplay:10.37,2013-05-13 05:06:00,
2013-05-12 22:11:00,56.0,53.1,29.99,SE,133,2.0,2.0,90,0.00,,SKC,0.00,0.0,WeatherDisplay:10.37,2013-05-13 05:11:00,
2013-05-12 22:16:00,55.9,53.0,29.99,SE,133,4.0,4.0,90,0.00,,SKC,0.00,0.0,WeatherDisplay:10.37,2013-05-13 05:16:00,
2013-05-12 22:21:00,55.9,53.0,29.99,SE,132,3.5,3.5,90,0.00,,SKC,0.00,0.0,WeatherDisplay:10.37,2013-05-13 05:21:00,
2013-05-12 22:26:00,55.8,52.9,29.99,SE,132,0.0,0.0,90,0.00,,SKC,0.00,0.0,WeatherDisplay:10.37,2013-05-13 05:26:00,
2013-05-12 22:31:00,55.8,53.2,29.99,SE,132,1.2,1.2,91,0.00,,SKC,0.00,0.0,WeatherDisplay:10.37,2013-05-13 05:31:00,
2013-05-12 22:36:00,55.8,53.2,29.99,SE,131,1.2,0.0,91,0.00,,SKC,0.00,0.0,WeatherDisplay:10.37,2013-05-13 05:36:00,
2013-05-12 22:41:00,55.8,53.2,29.98,SE,131,1.0,1.0,91,0.00,,SKC,0.00,0.0,WeatherDisplay:10.37,2013-05-13 05:41:00,
2013-05-12 22:46:00,55.8,53.2,29.98,SE,130,1.2,1.2,91,0.00,,SKC,0.00,0.0,WeatherDisplay:10.37,2013-05-13 05:46:00,
2013-05-12 22:51:00,55.8,53.2,29.98,SE,131,0.0,0.0,91,0.00,,SKC,0.00,0.0,WeatherDisplay:10.37,2013-05-13 05:51:00,
2013-05-12 22:56:00,55.8,53.2,29.98,SE,130,2.3,2.3,91,0.00,,SKC,0.00,0.0,WeatherDisplay:10.37,2013-05-13 05:56:00,
2013-05-12 23:01:00,55.8,53.2,29.98,SE,130,0.0,0.0,91,0.00,,SKC,0.00,0.0,WeatherDisplay:10.37,2013-05-13 06:01:00,
2013-05-12 23:06:00,55.8,53.2,29.98,SE,131,0.0,0.0,91,0.00,,SKC,0.00,0.0,WeatherDisplay:10.37,2013-05-13 06:06:00,
2013-05-12 23:11:00,55.8,53.2,29.98,SE,130,0.0,0.0,91,0.00,,SKC,0.00,0.0,WeatherDisplay:10.37,2013-05-13 06:11:00,
2013-05-12 23:16:00,55.8,53.2,29.98,SE,131,0.0,0.0,91,0.00,,SKC,0.00,0.0,WeatherDisplay:10.37,2013-05-13 06:16:00,
2013-05-12 23:21:00,55.6,53.0,29.98,SE,130,0.0,0.0,91,0.00,,SKC,0.00,0.0,WeatherDisplay:10.37,2013-05-13 06:21:00,
2013-05-12 23:26:00,55.4,52.8,29.98,SE,131,0.0,0.0,91,0.00,,SKC,0.00,0.0,WeatherDisplay:10.37,2013-05-13 06:26:00,
2013-05-12 23:31:00,55.3,52.7,29.98,SE,130,0.0,0.0,91,0.00,,SKC,0.00,0.0,WeatherDisplay:10.37,2013-05-13 06:31:00,
2013-05-12 23:36:00,55.1,52.5,29.98,SE,130,0.0,0.0,91,0.00,,SKC,0.00,0.0,WeatherDisplay:10.37,2013-05-13 06:36:00,
2013-05-12 23:41:00,55.0,52.4,29.98,SE,131,0.0,0.0,91,0.00,,SKC,0.00,0.0,WeatherDisplay:10.37,2013-05-13 06:41:00,
2013-05-12 23:46:00,54.9,52.3,29.98,SE,130,0.0,0.0,91,0.00,,SKC,0.00,0.0,WeatherDisplay:10.37,2013-05-13 06:46:00,
2013-05-12 23:51:00,54.9,52.3,29.98,SE,130,0.0,0.0,91,0.00,,SKC,0.00,0.0,WeatherDisplay:10.37,2013-05-13 06:51:00,
2013-05-12 23:56:00,54.7,52.1,29.98,SE,130,0.0,0.0,91,0.00,,SKC,0.00,0.0,WeatherDisplay:10.37,2013-05-13 06:56:00,